createdAt,value
2018-07-25T00:02:04.937Z,98391.00
2018-07-25T00:04:33.466Z,98381.00
2018-07-25T00:07:02.105Z,98389.00
2018-07-25T00:09:30.594Z,98380.00
2018-07-25T00:11:59.084Z,98389.00
2018-07-25T00:14:27.626Z,98384.00
2018-07-25T00:16:56.063Z,98389.00
2018-07-25T00:19:24.530Z,98386.00
2018-07-25T00:21:53.061Z,98380.00
2018-07-25T00:24:21.526Z,98385.00
2018-07-25T00:26:49.993Z,98380.00
2018-07-25T00:29:18.451Z,98384.00
2018-07-25T00:31:46.983Z,98381.00
2018-07-25T00:34:15.448Z,98378.00
2018-07-25T00:36:44.057Z,98381.00
2018-07-25T00:39:13.197Z,98372.00
2018-07-25T00:41:41.743Z,98372.00
2018-07-25T00:44:10.993Z,98382.00
2018-07-25T00:46:39.478Z,98377.00
2018-07-25T00:49:07.962Z,98385.00
2018-07-25T00:51:36.647Z,98380.00
2018-07-25T00:54:05.217Z,98372.00
2018-07-25T00:56:34.005Z,98383.00
2018-07-25T00:59:02.446Z,98379.00
2018-07-25T01:01:30.887Z,98379.00
2018-07-25T01:03:59.527Z,98383.00
2018-07-25T01:06:28.004Z,98391.00
2018-07-25T01:08:56.440Z,98384.00
2018-07-25T01:11:24.923Z,98386.00
2018-07-25T01:13:53.419Z,98386.00
2018-07-25T01:16:21.873Z,98389.00
2018-07-25T01:18:50.311Z,98386.00
2018-07-25T01:21:18.759Z,98384.00
2018-07-25T01:23:47.280Z,98383.00
2018-07-25T01:26:15.735Z,98380.00
2018-07-25T01:28:44.161Z,98378.00
2018-07-25T01:31:13.660Z,98378.00
2018-07-25T01:33:43.191Z,98377.00
2018-07-25T01:36:12.815Z,98367.00
2018-07-25T01:38:41.771Z,98383.00
2018-07-25T01:41:10.798Z,98386.00
2018-07-25T01:43:39.547Z,98377.00
2018-07-25T01:46:08.446Z,98387.00
2018-07-25T01:48:37.153Z,98385.00
2018-07-25T01:51:05.741Z,98383.00
2018-07-25T01:53:34.189Z,98385.00
2018-07-25T01:56:02.661Z,98391.00
2018-07-25T01:58:31.334Z,98391.00
2018-07-25T02:00:59.777Z,98390.00
2018-07-25T02:03:28.366Z,98396.00
2018-07-25T02:05:56.811Z,98388.00
2018-07-25T02:08:25.264Z,98388.00
2018-07-25T02:10:53.647Z,98388.00
2018-07-25T02:13:22.128Z,98384.00
2018-07-25T02:15:50.576Z,98381.00
2018-07-25T02:18:19.034Z,98380.00
2018-07-25T02:20:47.540Z,98385.00
2018-07-25T02:23:16.042Z,98393.00
2018-07-25T02:25:44.479Z,98380.00
2018-07-25T02:28:14.007Z,98383.00
2018-07-25T02:30:43.889Z,98386.00
2018-07-25T02:33:12.546Z,98385.00
2018-07-25T02:35:41.748Z,98392.00
2018-07-25T02:38:11.014Z,98394.00
2018-07-25T02:40:39.631Z,98388.00
2018-07-25T02:43:08.107Z,98393.00
2018-07-25T02:45:41.747Z,98399.00
2018-07-25T02:48:10.884Z,98404.00
2018-07-25T02:50:39.530Z,98412.00
2018-07-25T02:53:08.021Z,98413.00
2018-07-25T02:55:36.529Z,98417.00
2018-07-25T02:58:04.981Z,98417.00
2018-07-25T03:00:33.427Z,98422.00
2018-07-25T03:03:02.254Z,98415.00
2018-07-25T03:05:30.754Z,98410.00
2018-07-25T03:07:59.225Z,98415.00
2018-07-25T03:10:27.688Z,98419.00
2018-07-25T03:12:56.115Z,98422.00
2018-07-25T03:15:24.549Z,98420.00
2018-07-25T03:17:53.020Z,98421.00
2018-07-25T03:20:21.466Z,98427.00
2018-07-25T03:22:49.931Z,98427.00
2018-07-25T03:25:18.377Z,98435.00
2018-07-25T03:27:46.938Z,98433.00
2018-07-25T03:30:15.598Z,98439.00
2018-07-25T03:32:44.742Z,98446.00
2018-07-25T03:35:13.803Z,98444.00
2018-07-25T03:37:43.243Z,98441.00
2018-07-25T03:40:11.999Z,98442.00
2018-07-25T03:42:40.877Z,98443.00
2018-07-25T03:45:09.325Z,98445.00
2018-07-25T03:47:37.929Z,98446.00
2018-07-25T03:50:06.394Z,98445.00
2018-07-25T03:52:34.817Z,98448.00
2018-07-25T03:55:03.253Z,98445.00
2018-07-25T03:57:31.699Z,98452.00
2018-07-25T04:00:00.190Z,98449.00
2018-07-25T04:02:28.697Z,98454.00
2018-07-25T04:04:57.190Z,98463.00
2018-07-25T04:07:25.844Z,98453.00
2018-07-25T04:09:54.361Z,98461.00
2018-07-25T04:12:22.817Z,98457.00
2018-07-25T04:14:51.277Z,98467.00
2018-07-25T04:17:19.780Z,98463.00
2018-07-25T04:19:48.437Z,98470.00
2018-07-25T04:22:17.008Z,98468.00
2018-07-25T04:24:45.555Z,98475.00
2018-07-25T04:27:13.974Z,98474.00
2018-07-25T04:29:44.070Z,98471.00
2018-07-25T04:32:13.552Z,98474.00
2018-07-25T04:34:43.084Z,98477.00
2018-07-25T04:37:12.442Z,98470.00
2018-07-25T04:39:42.075Z,98472.00
2018-07-25T04:42:11.150Z,98472.00
2018-07-25T04:44:39.714Z,98478.00
2018-07-25T04:47:08.301Z,98478.00
2018-07-25T04:49:36.925Z,98475.00
2018-07-25T04:52:05.512Z,98474.00
2018-07-25T04:54:34.187Z,98483.00
2018-07-25T04:57:02.661Z,98487.00
2018-07-25T04:59:31.110Z,98486.00
2018-07-25T05:01:59.651Z,98479.00
2018-07-25T05:04:28.712Z,98481.00
2018-07-25T05:06:57.339Z,98481.00
2018-07-25T05:09:25.785Z,98484.00
2018-07-25T05:11:54.254Z,98473.00
2018-07-25T05:14:22.735Z,98482.00
2018-07-25T05:16:51.250Z,98480.00
2018-07-25T05:19:19.702Z,98477.00
2018-07-25T05:21:48.182Z,98483.00
2018-07-25T05:24:16.660Z,98479.00
2018-07-25T05:26:45.112Z,98485.00
2018-07-25T05:29:13.562Z,98473.00
2018-07-25T05:31:43.031Z,98477.00
2018-07-25T05:34:11.825Z,98477.00
2018-07-25T05:36:40.896Z,98482.00
2018-07-25T05:39:11.754Z,98479.00
2018-07-25T05:41:40.909Z,98480.00
2018-07-25T05:44:09.394Z,98490.00
2018-07-25T05:46:38.175Z,98494.00
2018-07-25T05:49:06.834Z,98483.00
2018-07-25T05:51:35.638Z,98496.00
2018-07-25T05:54:04.129Z,98492.00
2018-07-25T05:56:32.580Z,98493.00
2018-07-25T05:59:01.097Z,98499.00
2018-07-25T06:01:29.678Z,98496.00
2018-07-25T06:03:58.390Z,98494.00
2018-07-25T06:06:26.851Z,98494.00
2018-07-25T06:08:55.291Z,98489.00
2018-07-25T06:11:23.722Z,98484.00
2018-07-25T06:13:52.141Z,98487.00
2018-07-25T06:16:20.606Z,98491.00
2018-07-25T06:18:49.030Z,98487.00
2018-07-25T06:21:17.452Z,98481.00
2018-07-25T06:23:45.849Z,98489.00
2018-07-25T06:26:14.269Z,98486.00
2018-07-25T06:28:43.407Z,98493.00
2018-07-25T06:31:13.200Z,98490.00
2018-07-25T06:33:41.769Z,98495.00
2018-07-25T06:36:10.820Z,98486.00
2018-07-25T06:38:39.241Z,98482.00
2018-07-25T06:41:07.680Z,98496.00
2018-07-25T06:43:36.178Z,98499.00
2018-07-25T06:46:04.563Z,98498.00
2018-07-25T06:48:33.007Z,98503.00
2018-07-25T06:51:01.419Z,98505.00
2018-07-25T06:53:29.859Z,98503.00
2018-07-25T06:55:58.271Z,98499.00
2018-07-25T06:58:26.759Z,98505.00
2018-07-25T07:00:55.182Z,98507.00
2018-07-25T07:03:23.605Z,98499.00
2018-07-25T07:05:52.022Z,98508.00
2018-07-25T07:08:20.441Z,98507.00
2018-07-25T07:10:48.885Z,98512.00
2018-07-25T07:13:17.322Z,98498.00
2018-07-25T07:15:45.757Z,98503.00
2018-07-25T07:18:14.627Z,98508.00
2018-07-25T07:20:44.513Z,98503.00
2018-07-25T07:23:13.079Z,98502.00
2018-07-25T07:25:41.788Z,98510.00
2018-07-25T07:28:10.896Z,98511.00
2018-07-25T07:30:39.330Z,98510.00
2018-07-25T07:33:07.778Z,98499.00
2018-07-25T07:35:36.235Z,98502.00
2018-07-25T07:38:04.941Z,98515.00
2018-07-25T07:40:33.394Z,98511.00
2018-07-25T07:43:01.871Z,98515.00
2018-07-25T07:45:30.331Z,98517.00
2018-07-25T07:47:58.788Z,98518.00
2018-07-25T07:50:27.223Z,98510.00
2018-07-25T07:52:55.803Z,98515.00
2018-07-25T07:55:24.303Z,98523.00
2018-07-25T07:57:52.774Z,98521.00
2018-07-25T08:00:21.203Z,98516.00
2018-07-25T08:02:49.666Z,98517.00
2018-07-25T08:05:18.161Z,98520.00
2018-07-25T08:07:46.594Z,98517.00
2018-07-25T08:10:15.040Z,98521.00
2018-07-25T08:12:43.453Z,98518.00
2018-07-25T08:15:12.918Z,98514.00
2018-07-25T08:17:42.469Z,98510.00
2018-07-25T08:20:10.855Z,98517.00
2018-07-25T08:22:39.299Z,98513.00
2018-07-25T08:25:07.740Z,98504.00
2018-07-25T08:27:36.186Z,98508.00
2018-07-25T08:30:05.306Z,98504.00
2018-07-25T08:32:33.835Z,98506.00
2018-07-25T08:35:02.247Z,98496.00
2018-07-25T08:37:30.928Z,98505.00
2018-07-25T08:39:59.327Z,98504.00
2018-07-25T08:42:27.751Z,98505.00
2018-07-25T08:44:56.169Z,98503.00
2018-07-25T08:47:24.590Z,98501.00
2018-07-25T08:49:53.011Z,98504.00
2018-07-25T08:52:21.526Z,98506.00
2018-07-25T08:54:49.941Z,98505.00
2018-07-25T08:57:18.363Z,98508.00
2018-07-25T08:59:46.769Z,98510.00
2018-07-25T09:02:15.195Z,98506.00
2018-07-25T09:04:43.616Z,98510.00
2018-07-25T09:07:12.733Z,98503.00
2018-07-25T09:09:42.391Z,98510.00
2018-07-25T09:12:10.927Z,98513.00
2018-07-25T09:14:39.367Z,98499.00
2018-07-25T09:17:07.849Z,98512.00
2018-07-25T09:19:36.363Z,98506.00
2018-07-25T09:22:04.803Z,98507.00
2018-07-25T09:24:33.265Z,98504.00
2018-07-25T09:27:01.404Z,98509.00
2018-07-25T09:29:29.873Z,98504.00
2018-07-25T09:31:58.665Z,98500.00
2018-07-25T09:34:27.207Z,98504.00
2018-07-25T09:36:55.596Z,98502.00
2018-07-25T09:39:24.065Z,98490.00
2018-07-25T09:41:52.554Z,98492.00
2018-07-25T09:44:21.030Z,98497.00
2018-07-25T09:46:49.526Z,98487.00
2018-07-25T09:49:18.149Z,98488.00
2018-07-25T09:51:46.662Z,98485.00
2018-07-25T09:54:15.110Z,98489.00
2018-07-25T09:56:43.655Z,98481.00
2018-07-25T09:59:13.172Z,98480.00
2018-07-25T10:01:41.942Z,98478.00
2018-07-25T10:04:10.817Z,98484.00
2018-07-25T10:06:39.260Z,98461.00
2018-07-25T10:09:08.599Z,98464.00
2018-07-25T10:11:37.086Z,98475.00
2018-07-25T10:14:05.555Z,98474.00
2018-07-25T10:16:33.996Z,98468.00
2018-07-25T10:19:02.465Z,98464.00
2018-07-25T10:21:30.995Z,98463.00
2018-07-25T10:23:59.772Z,98461.00
2018-07-25T10:26:28.328Z,98452.00
2018-07-25T10:28:56.751Z,98468.00
2018-07-25T10:31:25.238Z,98460.00
2018-07-25T10:33:53.685Z,98456.00
2018-07-25T10:36:22.130Z,98453.00
2018-07-25T10:38:50.719Z,98449.00
2018-07-25T10:41:19.165Z,98447.00
2018-07-25T10:43:47.611Z,98448.00
2018-07-25T10:46:16.067Z,98458.00
2018-07-25T10:48:44.694Z,98449.00
2018-07-25T10:51:14.415Z,98441.00
2018-07-25T10:53:44.064Z,98443.00
2018-07-25T10:56:13.222Z,98434.00
2018-07-25T10:58:42.713Z,98438.00
2018-07-25T11:01:11.914Z,98436.00
2018-07-25T11:03:40.839Z,98424.00
2018-07-25T11:06:09.287Z,98430.00
2018-07-25T11:08:37.736Z,98432.00
2018-07-25T11:11:06.187Z,98431.00
2018-07-25T11:13:34.615Z,98430.00
2018-07-25T11:16:03.057Z,98435.00
2018-07-25T11:18:31.531Z,98435.00
2018-07-25T11:20:59.978Z,98425.00
2018-07-25T11:23:28.422Z,98429.00
2018-07-25T11:26:03.598Z,98417.00
2018-07-25T11:28:32.027Z,98428.00
2018-07-25T11:31:00.477Z,98433.00
2018-07-25T11:33:28.909Z,98422.00
2018-07-25T11:35:57.324Z,98426.00
2018-07-25T11:38:25.772Z,98417.00
2018-07-25T11:40:54.185Z,98423.00
2018-07-25T11:43:22.609Z,98410.00
2018-07-25T11:45:51.037Z,98409.00
2018-07-25T11:48:19.463Z,98414.00
2018-07-25T11:50:47.877Z,98414.00
2018-07-25T11:53:16.298Z,98409.00
2018-07-25T11:55:44.971Z,98407.00
2018-07-25T11:58:13.345Z,98412.00
2018-07-25T12:00:42.598Z,98407.00
2018-07-25T12:03:11.762Z,98402.00
2018-07-25T12:05:40.885Z,98402.00
2018-07-25T12:08:09.314Z,98406.00
2018-07-25T12:10:37.903Z,98407.00
2018-07-25T12:13:06.607Z,98405.00
2018-07-25T12:15:35.083Z,98398.00
2018-07-25T12:18:03.527Z,98393.00
2018-07-25T12:20:31.973Z,98401.00
2018-07-25T12:23:00.421Z,98393.00
2018-07-25T12:25:28.872Z,98387.00
2018-07-25T12:27:57.301Z,98388.00
2018-07-25T12:30:25.795Z,98377.00
2018-07-25T12:32:54.228Z,98371.00
2018-07-25T12:35:22.683Z,98380.00
2018-07-25T12:37:51.138Z,98375.00
2018-07-25T12:40:19.750Z,98384.00
2018-07-25T12:42:48.176Z,98374.00
2018-07-25T12:45:16.672Z,98368.00
2018-07-25T12:47:45.253Z,98370.00
2018-07-25T12:50:13.687Z,98369.00
2018-07-25T12:52:43.360Z,98361.00
2018-07-25T12:55:12.952Z,98364.00
2018-07-25T12:57:41.397Z,98363.00
2018-07-25T13:00:09.828Z,98358.00
2018-07-25T13:02:38.351Z,98357.00
2018-07-25T13:05:06.943Z,98360.00
2018-07-25T13:07:35.405Z,98355.00
2018-07-25T13:10:03.922Z,98349.00
2018-07-25T13:12:32.380Z,98348.00
2018-07-25T13:15:00.833Z,98344.00
2018-07-25T13:17:29.990Z,98337.00
2018-07-25T13:19:59.288Z,98350.00
2018-07-25T13:22:28.444Z,98340.00
2018-07-25T13:24:57.635Z,98337.00
2018-07-25T13:27:26.841Z,98345.00
2018-07-25T13:29:56.059Z,98348.00
2018-07-25T13:32:25.502Z,98342.00
2018-07-25T13:34:54.766Z,98341.00
2018-07-25T13:37:23.844Z,98339.00
2018-07-25T13:39:52.946Z,98347.00
2018-07-25T13:42:22.088Z,98338.00
2018-07-25T13:44:51.326Z,98337.00
2018-07-25T13:47:20.353Z,98343.00
2018-07-25T13:49:49.728Z,98333.00
2018-07-25T13:52:19.008Z,98332.00
2018-07-25T13:54:48.254Z,98335.00
2018-07-25T13:57:17.247Z,98335.00
2018-07-25T13:59:46.057Z,98330.00
2018-07-25T14:02:14.443Z,98330.00
2018-07-25T14:04:43.063Z,98325.00
2018-07-25T14:07:12.560Z,98328.00
2018-07-25T14:09:41.757Z,98329.00
2018-07-25T14:12:10.955Z,98328.00
2018-07-25T14:14:39.330Z,98325.00
2018-07-25T14:17:07.775Z,98322.00
2018-07-25T14:19:36.221Z,98318.00
2018-07-25T14:22:04.696Z,98325.00
2018-07-25T14:24:33.348Z,98326.00
2018-07-25T14:27:01.803Z,98314.00
2018-07-25T14:29:30.259Z,98312.00
2018-07-25T14:31:58.690Z,98313.00
2018-07-25T14:34:27.134Z,98312.00
2018-07-25T14:36:55.600Z,98307.00
2018-07-25T14:39:24.046Z,98309.00
2018-07-25T14:41:52.494Z,98312.00
2018-07-25T14:44:21.258Z,98301.00
2018-07-25T14:46:49.747Z,98304.00
2018-07-25T14:49:18.161Z,98319.00
2018-07-25T14:51:46.710Z,98316.00
2018-07-25T14:54:15.192Z,98312.00
2018-07-25T14:56:43.731Z,98316.00
2018-07-25T14:59:13.228Z,98324.00
2018-07-25T15:01:41.815Z,98312.00
2018-07-25T15:04:11.069Z,98319.00
2018-07-25T15:06:39.526Z,98322.00
2018-07-25T15:09:08.637Z,98320.00
2018-07-25T15:11:37.105Z,98320.00
2018-07-25T15:14:05.609Z,98320.00
2018-07-25T15:16:34.181Z,98316.00
2018-07-25T15:19:02.632Z,98315.00
2018-07-25T15:21:31.068Z,98305.00
2018-07-25T15:24:01.152Z,98307.00
2018-07-25T15:26:29.938Z,98309.00
2018-07-25T15:28:59.470Z,98323.00
2018-07-25T15:31:28.079Z,98305.00
2018-07-25T15:33:56.529Z,98309.00
2018-07-25T15:36:36.207Z,98312.00
2018-07-25T15:39:06.800Z,98306.00
2018-07-25T15:41:35.245Z,98313.00
2018-07-25T15:44:04.045Z,98311.00
2018-07-25T15:46:32.483Z,98305.00
2018-07-25T15:49:00.982Z,98301.00
2018-07-25T15:51:29.497Z,98303.00
2018-07-25T15:56:48.577Z,98298.00
2018-07-25T15:59:17.026Z,98288.00
2018-07-25T16:01:45.667Z,98285.00
2018-07-25T16:04:22.237Z,98293.00
2018-07-25T16:06:50.975Z,98296.00
2018-07-25T16:09:19.507Z,98287.00
2018-07-25T16:11:52.231Z,98280.00
2018-07-25T16:14:20.838Z,98283.00
2018-07-25T16:16:49.496Z,98279.00
2018-07-25T16:19:17.954Z,98275.00
2018-07-25T16:21:47.237Z,98273.00
2018-07-25T16:24:16.029Z,98279.00
2018-07-25T16:26:44.923Z,98274.00
2018-07-25T16:29:14.109Z,98270.00
2018-07-25T16:31:43.292Z,98281.00
2018-07-25T16:34:12.283Z,98266.00
2018-07-25T16:36:40.846Z,98280.00
2018-07-25T16:39:14.289Z,98272.00
2018-07-25T16:41:43.741Z,98265.00
2018-07-25T16:44:12.369Z,98282.00
2018-07-25T16:46:41.395Z,98279.00
2018-07-25T16:49:09.836Z,98268.00
2018-07-25T16:51:40.938Z,98274.00
2018-07-25T16:54:09.428Z,98286.00
2018-07-25T16:56:38.110Z,98275.00
2018-07-25T16:59:06.661Z,98281.00
2018-07-25T17:01:34.847Z,98288.00
2018-07-25T17:04:04.066Z,98292.00
2018-07-25T17:06:33.170Z,98287.00
2018-07-25T17:09:02.553Z,98287.00
2018-07-25T17:11:32.078Z,98280.00
2018-07-25T17:14:01.263Z,98290.00
2018-07-25T17:16:30.576Z,98279.00
2018-07-25T17:18:59.769Z,98300.00
2018-07-25T17:21:28.875Z,98291.00
2018-07-25T17:23:58.142Z,98292.00
2018-07-25T17:26:27.359Z,98294.00
2018-07-25T17:28:56.456Z,98291.00
2018-07-25T17:31:25.710Z,98296.00
2018-07-25T17:33:54.981Z,98292.00
2018-07-25T17:36:24.055Z,98285.00
2018-07-25T17:38:53.416Z,98290.00
2018-07-25T17:41:22.581Z,98293.00
2018-07-25T17:43:51.764Z,98293.00
2018-07-25T17:46:21.535Z,98299.00
2018-07-25T17:48:51.519Z,98298.00
2018-07-25T17:51:20.627Z,98302.00
2018-07-25T17:53:49.923Z,98299.00
2018-07-25T17:56:19.143Z,98303.00
2018-07-25T17:58:48.278Z,98307.00
2018-07-25T18:01:17.595Z,98301.00
2018-07-25T18:03:47.074Z,98310.00
2018-07-25T18:06:16.315Z,98319.00
2018-07-25T18:08:45.546Z,98314.00
2018-07-25T18:11:14.595Z,98305.00
2018-07-25T18:14:16.470Z,98312.00
2018-07-25T18:16:46.082Z,98316.00
2018-07-25T18:19:16.098Z,98322.00
2018-07-25T18:21:45.257Z,98327.00
2018-07-25T18:24:14.561Z,98328.00
2018-07-25T18:26:44.131Z,98336.00
2018-07-25T18:29:14.379Z,98341.00
2018-07-25T18:31:44.523Z,98335.00
2018-07-25T18:34:15.115Z,98331.00
2018-07-25T18:36:43.580Z,98339.00
2018-07-25T18:39:13.226Z,98333.00
2018-07-25T18:41:41.790Z,98339.00
2018-07-25T18:44:10.947Z,98343.00
2018-07-25T18:46:39.421Z,98337.00
2018-07-25T18:49:07.941Z,98337.00
2018-07-25T18:51:36.387Z,98348.00
2018-07-25T18:54:04.905Z,98347.00
2018-07-25T18:56:33.332Z,98353.00
2018-07-25T18:59:01.854Z,98355.00
2018-07-25T19:01:30.455Z,98358.00
2018-07-25T19:03:59.050Z,98359.00
2018-07-25T19:06:27.510Z,98365.00
2018-07-25T19:08:56.005Z,98360.00
2018-07-25T19:11:24.663Z,98371.00
2018-07-25T19:13:58.545Z,98368.00
2018-07-25T19:16:27.171Z,98372.00
2018-07-25T19:18:55.602Z,98371.00
2018-07-25T19:21:24.139Z,98384.00
2018-07-25T19:23:52.585Z,98381.00
2018-07-25T19:26:21.021Z,98388.00
2018-07-25T19:28:49.454Z,98388.00
2018-07-25T19:31:17.994Z,98388.00
2018-07-25T19:33:46.519Z,98388.00
2018-07-25T19:36:15.018Z,98390.00
2018-07-25T19:38:43.501Z,98399.00
2018-07-25T19:41:12.928Z,98398.00
2018-07-25T19:43:41.857Z,98400.00
2018-07-25T19:46:10.375Z,98404.00
2018-07-25T19:48:38.820Z,98406.00
2018-07-25T19:51:07.278Z,98409.00
2018-07-25T19:53:35.713Z,98415.00
2018-07-25T19:56:04.155Z,98412.00
2018-07-25T19:58:32.598Z,98412.00
2018-07-25T20:01:01.079Z,98420.00
2018-07-25T20:03:29.598Z,98415.00
2018-07-25T20:05:58.043Z,98416.00
2018-07-25T20:08:26.638Z,98418.00
2018-07-25T20:10:55.134Z,98422.00
2018-07-25T20:13:23.746Z,98422.00
2018-07-25T20:15:57.968Z,98416.00
2018-07-25T20:18:26.665Z,98420.00
2018-07-25T20:20:55.548Z,98432.00
2018-07-25T20:23:24.336Z,98435.00
2018-07-25T20:25:52.805Z,98418.00
2018-07-25T20:28:27.913Z,98428.00
2018-07-25T20:30:56.333Z,98431.00
2018-07-25T20:33:24.746Z,98426.00
2018-07-25T20:35:53.227Z,98427.00
2018-07-25T20:38:21.607Z,98437.00
2018-07-25T20:40:50.483Z,98438.00
2018-07-25T20:43:19.026Z,98438.00
2018-07-25T20:45:47.531Z,98429.00
2018-07-25T20:48:15.939Z,98433.00
2018-07-25T20:50:44.521Z,98436.00
2018-07-25T20:53:13.121Z,98447.00
2018-07-25T20:55:42.567Z,98450.00
2018-07-25T20:58:11.690Z,98446.00
2018-07-25T21:00:40.965Z,98462.00
2018-07-25T21:03:09.340Z,98454.00
2018-07-25T21:05:37.793Z,98457.00
2018-07-25T21:08:06.245Z,98464.00
2018-07-25T21:10:34.750Z,98460.00
2018-07-25T21:13:03.096Z,98461.00
2018-07-25T21:15:31.504Z,98470.00
2018-07-25T21:17:59.914Z,98471.00
2018-07-25T21:23:19.604Z,98474.00
2018-07-25T21:25:48.046Z,98470.00
2018-07-25T21:28:16.497Z,98477.00
2018-07-25T21:30:44.937Z,98481.00
2018-07-25T21:33:13.387Z,98472.00
2018-07-25T21:35:42.960Z,98483.00
2018-07-25T21:38:12.098Z,98477.00
2018-07-25T21:40:41.211Z,98477.00
2018-07-25T21:43:09.676Z,98483.00
2018-07-25T21:45:38.209Z,98482.00
2018-07-25T21:48:06.649Z,98481.00
2018-07-25T21:50:35.099Z,98479.00
2018-07-25T21:53:03.524Z,98483.00
2018-07-25T21:55:32.034Z,98488.00
2018-07-25T21:58:00.496Z,98489.00
2018-07-25T22:00:29.025Z,98488.00
2018-07-25T22:02:57.465Z,98487.00
2018-07-25T22:05:25.930Z,98483.00
2018-07-25T22:07:54.217Z,98485.00
2018-07-25T22:10:25.830Z,98492.00
2018-07-25T22:12:55.351Z,98485.00
2018-07-25T22:15:24.070Z,98486.00
2018-07-25T22:17:52.502Z,98481.00
2018-07-25T22:20:20.939Z,98492.00
2018-07-25T22:22:49.365Z,98490.00
2018-07-25T22:25:17.802Z,98498.00
2018-07-25T22:27:46.222Z,98491.00
2018-07-25T22:30:14.678Z,98498.00
2018-07-25T22:32:44.063Z,98495.00
2018-07-25T22:35:12.832Z,98500.00
2018-07-25T22:37:41.817Z,98490.00
2018-07-25T22:40:10.936Z,98488.00
2018-07-25T22:42:39.357Z,98489.00
2018-07-25T22:45:07.810Z,98498.00
2018-07-25T22:47:36.256Z,98495.00
2018-07-25T22:50:04.714Z,98508.00
2018-07-25T22:52:33.189Z,98498.00
2018-07-25T22:55:01.645Z,98504.00
2018-07-25T22:57:30.106Z,98507.00
2018-07-25T22:59:58.554Z,98500.00
2018-07-25T23:02:27.002Z,98504.00
2018-07-25T23:04:55.451Z,98518.00
2018-07-25T23:07:23.882Z,98511.00
2018-07-25T23:09:52.352Z,98518.00
2018-07-25T23:12:20.764Z,98515.00
2018-07-25T23:14:49.222Z,98511.00
2018-07-25T23:17:17.624Z,98522.00
2018-07-25T23:19:46.049Z,98518.00
2018-07-25T23:22:14.457Z,98518.00
2018-07-25T23:25:04.853Z,98523.00
2018-07-25T23:27:33.275Z,98525.00
2018-07-25T23:30:01.796Z,98519.00
2018-07-25T23:32:30.281Z,98518.00
2018-07-25T23:34:58.697Z,98523.00
2018-07-25T23:37:27.110Z,98524.00
2018-07-25T23:39:55.534Z,98527.00
2018-07-25T23:42:24.052Z,98534.00
2018-07-25T23:44:52.475Z,98535.00
2018-07-25T23:47:20.897Z,98534.00
2018-07-25T23:49:49.322Z,98525.00
2018-07-25T23:52:17.768Z,98519.00
2018-07-25T23:54:46.214Z,98522.00
2018-07-25T23:57:14.646Z,98521.00
2018-07-25T23:59:43.987Z,98520.00
